Time;durP1;ratioP1;P1;durP2;ratioP2;P2;SDS_P1;SDS_P2;PMS_P1;PMS_P2;Temp;Humidity;BMP_temperature;BMP_pressure;BME280_temperature;BME280_humidity;BME280_pressure;Samples;Min_cycle;Max_cycle;Signal;HPM_P1;HPM_P2
2022/02/22 00:01:41;;;;;;;;;;;6.90;1.00;;;;;;5049700;28;19920;-80
2022/02/22 00:04:07;;;;;;;;;;;6.80;1.00;;;;;;5039597;28;19915;-80
2022/02/22 00:06:33;;;;;;;;;;;6.90;1.00;;;;;;5054765;28;19924;-79
2022/02/22 00:08:58;;;;;;;;;;;6.90;1.00;;;;;;5054564;28;19909;-80
2022/02/22 00:11:24;;;;;;;;;;;6.90;1.00;;;;;;5055976;28;20372;-80
2022/02/22 00:13:50;;;;;;;;;;;6.90;1.00;;;;;;5055288;28;19956;-80
2022/02/22 00:16:15;;;;;;;;;;;6.80;1.00;;;;;;5054481;28;19913;-80
2022/02/22 00:18:41;;;;;;;;;;;6.80;1.00;;;;;;5050634;28;20443;-80
2022/02/22 00:21:06;;;;;;;;;;;6.80;1.00;;;;;;5054638;28;19912;-80
2022/02/22 00:23:32;;;;;;;;;;;6.80;7.60;;;;;;5055179;28;19918;-79
2022/02/22 00:25:57;;;;;;;;;;;6.70;59.90;;;;;;5058173;28;19948;-80
2022/02/22 00:28:23;;;;;;;;;;;6.70;99.90;;;;;;5058845;28;19913;-79
2022/02/22 00:30:48;;;;;;;;;;;6.70;99.90;;;;;;5059189;28;19916;-80
2022/02/22 00:33:14;;;;;;;;;;;6.60;1.00;;;;;;5058716;28;19963;-80
2022/02/22 00:35:40;;;;;;;;;;;6.60;99.90;;;;;;5057470;28;19913;-80
2022/02/22 00:38:05;;;;;;;;;;;6.60;99.90;;;;;;5059083;28;20007;-80
2022/02/22 00:40:30;;;;;;;;;;;6.60;99.90;;;;;;5058723;28;19974;-79
2022/02/22 00:42:56;;;;;;;;;;;6.60;99.90;;;;;;5057531;28;19913;-80
2022/02/22 00:45:22;;;;;;;;;;;6.60;1.00;;;;;;5056074;28;20293;-80
2022/02/22 00:47:47;;;;;;;;;;;6.60;80.80;;;;;;5058278;28;20292;-80
2022/02/22 00:50:12;;;;;;;;;;;6.50;1.00;;;;;;5058865;28;19917;-79
2022/02/22 00:52:38;;;;;;;;;;;6.50;99.90;;;;;;5056687;28;19913;-80
2022/02/22 00:55:04;;;;;;;;;;;6.40;1.00;;;;;;5058800;28;19954;-79
2022/02/22 00:57:29;;;;;;;;;;;6.40;99.90;;;;;;5058073;28;19924;-79
2022/02/22 00:59:55;;;;;;;;;;;6.40;1.00;;;;;;5058184;28;19913;-79
2022/02/22 01:02:20;;;;;;;;;;;6.30;99.90;;;;;;5058186;28;19912;-80
2022/02/22 01:04:46;;;;;;;;;;;6.20;1.00;;;;;;5055894;28;19939;-79
2022/02/22 01:07:16;;;;;;;;;;;6.20;1.00;;;;;;5057612;28;20424;-79
2022/02/22 01:09:42;;;;;;;;;;;6.20;1.00;;;;;;5056176;28;19916;-80
2022/02/22 01:12:09;;;;;;;;;;;6.20;1.00;;;;;;5057512;28;19916;-80
2022/02/22 01:14:34;;;;;;;;;;;6.20;1.00;;;;;;5045227;28;19913;-80
2022/02/22 01:16:59;;;;;;;;;;;6.20;1.00;;;;;;5055004;28;20003;-79
2022/02/22 01:19:25;;;;;;;;;;;6.10;1.00;;;;;;5057362;28;19920;-79
2022/02/22 01:21:50;;;;;;;;;;;6.10;1.00;;;;;;5057950;28;19951;-80
2022/02/22 01:24:16;;;;;;;;;;;6.10;1.00;;;;;;5057617;28;19931;-80
2022/02/22 01:26:41;;;;;;;;;;;6.00;1.00;;;;;;5056790;28;20004;-80
2022/02/22 01:29:07;;;;;;;;;;;6.00;1.00;;;;;;5073571;28;19956;-80
2022/02/22 01:31:32;;;;;;;;;;;6.00;26.20;;;;;;5053925;28;19917;-80
2022/02/22 01:33:58;;;;;;;;;;;6.00;99.90;;;;;;5053907;28;19913;-79
2022/02/22 01:36:27;;;;;;;;;;;6.00;99.90;;;;;;5056655;28;20369;-80
2022/02/22 01:38:53;;;;;;;;;;;6.00;99.90;;;;;;5056300;28;19928;-80
2022/02/22 01:41:19;;;;;;;;;;;6.00;99.90;;;;;;5057688;28;19913;-79
2022/02/22 01:43:44;;;;;;;;;;;6.10;99.90;;;;;;5056588;28;20369;-80
2022/02/22 01:46:09;;;;;;;;;;;6.00;99.90;;;;;;5057320;28;19966;-80
2022/02/22 01:48:35;;;;;;;;;;;6.00;99.90;;;;;;5052813;28;19916;-80
2022/02/22 01:51:00;;;;;;;;;;;6.00;99.90;;;;;;5057619;28;19919;-81
2022/02/22 01:53:26;;;;;;;;;;;6.00;99.90;;;;;;5057512;28;19924;-79
2022/02/22 01:55:51;;;;;;;;;;;6.00;99.90;;;;;;5058258;28;19913;-79
2022/02/22 01:58:17;;;;;;;;;;;6.00;99.90;;;;;;5055868;28;20011;-79
2022/02/22 02:00:45;;;;;;;;;;;6.00;99.90;;;;;;5056327;28;19913;-79
2022/02/22 02:03:15;;;;;;;;;;;6.00;99.90;;;;;;5053559;28;19924;-79
2022/02/22 02:05:41;;;;;;;;;;;6.00;99.90;;;;;;5054017;28;19921;-79
2022/02/22 02:08:06;;;;;;;;;;;6.00;99.90;;;;;;5054796;28;19917;-79
2022/02/22 02:10:32;;;;;;;;;;;6.00;99.90;;;;;;5055724;28;19917;-81
2022/02/22 02:12:57;;;;;;;;;;;5.90;99.90;;;;;;5054956;28;19908;-81
2022/02/22 02:15:23;;;;;;;;;;;5.90;99.90;;;;;;5055146;28;20396;-81
2022/02/22 02:17:48;;;;;;;;;;;5.80;99.90;;;;;;5054962;28;19917;-81
2022/02/22 02:20:13;;;;;;;;;;;5.80;99.90;;;;;;5052759;28;19920;-81
2022/02/22 02:22:40;;;;;;;;;;;5.70;99.90;;;;;;5054558;28;19919;-81
2022/02/22 02:25:06;;;;;;;;;;;5.70;99.90;;;;;;5055278;28;19938;-81
2022/02/22 02:27:32;;;;;;;;;;;5.70;99.90;;;;;;5055565;28;19952;-81
2022/02/22 02:29:59;;;;;;;;;;;5.70;99.90;;;;;;5053464;28;20371;-81
2022/02/22 02:32:25;;;;;;;;;;;5.60;99.90;;;;;;5053249;28;19962;-81
2022/02/22 02:34:51;;;;;;;;;;;5.60;99.90;;;;;;5055246;28;19912;-81
2022/02/22 02:37:16;;;;;;;;;;;5.50;99.90;;;;;;5054530;28;20007;-81
2022/02/22 02:39:42;;;;;;;;;;;5.50;99.90;;;;;;5053807;28;19920;-82
2022/02/22 02:42:07;;;;;;;;;;;5.50;99.90;;;;;;5055002;28;19915;-82
2022/02/22 02:44:33;;;;;;;;;;;5.40;99.90;;;;;;5055785;28;20339;-81
2022/02/22 02:46:58;;;;;;;;;;;5.40;99.90;;;;;;5056046;28;19909;-82
2022/02/22 02:49:24;;;;;;;;;;;5.40;99.90;;;;;;5055560;28;19935;-82
2022/02/22 02:51:49;;;;;;;;;;;5.30;99.90;;;;;;5056480;28;20236;-82
2022/02/22 02:54:15;;;;;;;;;;;5.30;99.90;;;;;;5054279;28;20007;-82
2022/02/22 02:56:40;;;;;;;;;;;5.30;99.90;;;;;;5056715;28;19958;-79
2022/02/22 02:59:07;;;;;;;;;;;5.20;99.90;;;;;;5055602;28;19956;-81
2022/02/22 03:01:33;;;;;;;;;;;5.20;1.00;;;;;;5055610;28;20006;-81
2022/02/22 03:03:59;;;;;;;;;;;5.10;1.00;;;;;;5052545;28;19917;-81
2022/02/22 03:06:25;;;;;;;;;;;5.10;1.00;;;;;;5054836;28;19913;-81
2022/02/22 03:08:50;;;;;;;;;;;5.10;1.00;;;;;;5055661;28;19916;-81
2022/02/22 03:11:16;;;;;;;;;;;5.10;1.00;;;;;;5054000;28;19916;-81
2022/02/22 03:13:41;;;;;;;;;;;5.00;1.00;;;;;;5055318;28;19913;-81
2022/02/22 03:16:08;;;;;;;;;;;5.00;1.00;;;;;;5057460;28;19909;-81
2022/02/22 03:18:34;;;;;;;;;;;5.00;1.00;;;;;;5056856;28;19924;-81
2022/02/22 03:21:00;;;;;;;;;;;4.90;1.00;;;;;;5051257;28;20408;-81
2022/02/22 03:23:25;;;;;;;;;;;4.90;1.00;;;;;;5055387;28;19909;-82
2022/02/22 03:25:51;;;;;;;;;;;4.90;1.00;;;;;;5056740;28;20007;-81
2022/02/22 03:28:17;;;;;;;;;;;4.90;1.00;;;;;;5054344;28;19913;-81
2022/02/22 03:30:43;;;;;;;;;;;4.80;1.00;;;;;;5053203;28;20308;-81
2022/02/22 03:33:08;;;;;;;;;;;4.80;1.00;;;;;;5054679;28;19956;-81
2022/02/22 03:35:34;;;;;;;;;;;4.80;1.00;;;;;;5054046;28;19966;-81
2022/02/22 03:38:00;;;;;;;;;;;4.80;1.00;;;;;;5052606;28;19917;-81
2022/02/22 03:40:25;;;;;;;;;;;4.80;1.00;;;;;;5054346;28;19917;-81
2022/02/22 03:42:51;;;;;;;;;;;4.80;1.00;;;;;;5053368;28;19916;-81
2022/02/22 03:45:16;;;;;;;;;;;4.70;1.00;;;;;;5055403;28;19908;-81
2022/02/22 03:47:42;;;;;;;;;;;4.70;1.00;;;;;;5054522;28;19920;-81
2022/02/22 03:50:09;;;;;;;;;;;4.70;1.00;;;;;;5054248;28;19916;-81
2022/02/22 03:52:35;;;;;;;;;;;4.60;1.00;;;;;;5052238;28;20429;-81
2022/02/22 03:55:00;;;;;;;;;;;4.60;1.00;;;;;;5055043;28;20374;-81
2022/02/22 03:57:26;;;;;;;;;;;4.60;1.00;;;;;;5055066;28;19958;-81
2022/02/22 03:59:51;;;;;;;;;;;4.60;1.00;;;;;;5058952;28;19916;-81
2022/02/22 04:02:17;;;;;;;;;;;4.60;1.00;;;;;;5056435;28;19917;-81
2022/02/22 04:04:42;;;;;;;;;;;4.60;1.00;;;;;;5058309;28;19955;-81
2022/02/22 04:07:08;;;;;;;;;;;4.70;1.00;;;;;;5057331;28;19976;-81
2022/02/22 04:09:33;;;;;;;;;;;4.60;1.00;;;;;;5059103;28;19909;-81
2022/02/22 04:11:59;;;;;;;;;;;4.70;1.00;;;;;;5057784;28;19912;-81
2022/02/22 04:14:24;;;;;;;;;;;4.70;1.00;;;;;;5060937;28;19974;-81
2022/02/22 04:16:50;;;;;;;;;;;4.60;1.00;;;;;;5059473;28;20381;-81
2022/02/22 04:19:16;;;;;;;;;;;4.60;1.00;;;;;;5059972;28;19904;-81
2022/02/22 04:21:42;;;;;;;;;;;4.70;1.00;;;;;;5059675;28;19970;-82
2022/02/22 04:24:07;;;;;;;;;;;4.60;1.00;;;;;;5058486;28;19908;-81
2022/02/22 04:26:33;;;;;;;;;;;4.60;1.00;;;;;;5059530;28;19912;-81
2022/02/22 04:29:00;;;;;;;;;;;4.60;1.00;;;;;;5059931;28;19909;-81
2022/02/22 04:31:29;;;;;;;;;;;4.60;1.00;;;;;;5058282;28;20388;-81
2022/02/22 04:33:54;;;;;;;;;;;4.60;1.00;;;;;;5057453;28;19912;-81
2022/02/22 04:36:20;;;;;;;;;;;4.70;1.00;;;;;;5058227;28;19996;-81
2022/02/22 04:38:46;;;;;;;;;;;4.60;1.00;;;;;;5059431;28;19913;-81
2022/02/22 04:41:12;;;;;;;;;;;4.60;1.00;;;;;;5059407;28;19955;-81
2022/02/22 04:43:37;;;;;;;;;;;4.70;1.00;;;;;;5057426;28;20116;-81
2022/02/22 04:46:03;;;;;;;;;;;4.70;1.00;;;;;;5058939;28;19913;-81
2022/02/22 04:48:28;;;;;;;;;;;4.70;1.00;;;;;;5059212;28;20298;-81
2022/02/22 04:50:54;;;;;;;;;;;4.70;1.00;;;;;;5057954;28;19960;-81
2022/02/22 04:53:19;;;;;;;;;;;4.60;1.00;;;;;;5053851;28;19924;-81
2022/02/22 04:55:45;;;;;;;;;;;4.60;1.00;;;;;;5057094;28;19944;-81
2022/02/22 04:58:10;;;;;;;;;;;4.60;1.00;;;;;;5057351;28;20296;-81
2022/02/22 05:00:35;;;;;;;;;;;4.60;1.00;;;;;;5056850;28;19916;-81
2022/02/22 05:03:01;;;;;;;;;;;4.50;1.00;;;;;;5057197;28;19909;-81
2022/02/22 05:05:27;;;;;;;;;;;4.50;1.00;;;;;;5056267;28;19913;-81
2022/02/22 05:07:52;;;;;;;;;;;4.50;1.00;;;;;;5058105;28;19913;-81
2022/02/22 05:10:18;;;;;;;;;;;4.40;1.00;;;;;;5052168;28;19913;-81
2022/02/22 05:12:43;;;;;;;;;;;4.40;1.00;;;;;;5055623;28;20663;-81
2022/02/22 05:15:09;;;;;;;;;;;4.40;1.00;;;;;;5055881;28;19913;-81
2022/02/22 05:17:34;;;;;;;;;;;4.40;1.00;;;;;;5055031;28;20430;-81
2022/02/22 05:20:00;;;;;;;;;;;4.40;1.00;;;;;;5056963;28;19917;-80
2022/02/22 05:22:25;;;;;;;;;;;4.40;1.00;;;;;;5055458;28;19940;-81
2022/02/22 05:24:51;;;;;;;;;;;4.40;1.00;;;;;;5055702;28;19912;-81
2022/02/22 05:27:16;;;;;;;;;;;4.40;1.00;;;;;;5055422;28;19912;-81
2022/02/22 05:29:42;;;;;;;;;;;4.30;1.00;;;;;;5055927;28;19912;-81
2022/02/22 05:32:08;;;;;;;;;;;4.30;1.00;;;;;;5057525;28;19908;-81
2022/02/22 05:34:36;;;;;;;;;;;4.30;1.00;;;;;;5053852;28;19913;-81
2022/02/22 05:37:02;;;;;;;;;;;4.20;1.00;;;;;;5056769;28;19916;-80
2022/02/22 05:39:28;;;;;;;;;;;4.20;1.00;;;;;;5056041;28;19917;-81
2022/02/22 05:41:53;;;;;;;;;;;4.20;1.00;;;;;;5079412;22;19931;-86
2022/02/22 05:44:19;;;;;;;;;;;4.20;1.00;;;;;;5048080;28;19917;-86
2022/02/22 05:46:44;;;;;;;;;;;4.10;1.00;;;;;;5076911;28;20380;-86
2022/02/22 05:49:10;;;;;;;;;;;4.10;1.00;;;;;;5054536;28;19912;-86
2022/02/22 05:51:35;;;;;;;;;;;4.10;1.00;;;;;;5086942;28;19936;-86
2022/02/22 05:54:01;;;;;;;;;;;4.10;1.00;;;;;;5054195;28;19909;-85
2022/02/22 05:56:26;;;;;;;;;;;4.10;1.00;;;;;;5051946;28;19913;-86
2022/02/22 05:58:51;;;;;;;;;;;4.10;1.00;;;;;;5050438;28;19917;-85
2022/02/22 06:01:17;;;;;;;;;;;4.10;1.00;;;;;;5049342;28;19913;-86
2022/02/22 06:03:42;;;;;;;;;;;4.00;1.00;;;;;;5041800;28;20573;-86
2022/02/22 06:06:08;;;;;;;;;;;4.00;1.00;;;;;;5042809;28;19917;-86
2022/02/22 06:08:33;;;;;;;;;;;3.90;1.00;;;;;;5069393;28;19908;-86
2022/02/22 06:10:59;;;;;;;;;;;3.90;1.00;;;;;;5053368;28;20355;-85
2022/02/22 06:13:24;;;;;;;;;;;3.90;1.00;;;;;;5052021;28;19909;-86
2022/02/22 06:15:50;;;;;;;;;;;3.90;1.00;;;;;;5047272;28;20479;-85
2022/02/22 06:18:18;;;;;;;;;;;3.90;1.00;;;;;;5047566;28;19917;-86
2022/02/22 06:20:44;;;;;;;;;;;3.90;1.00;;;;;;5053436;28;19959;-86
2022/02/22 06:23:10;;;;;;;;;;;3.90;1.00;;;;;;5051718;28;19938;-85
2022/02/22 06:25:36;;;;;;;;;;;3.90;1.00;;;;;;5049516;28;20951;-86
2022/02/22 06:28:02;;;;;;;;;;;3.90;1.00;;;;;;5042830;28;20031;-86
2022/02/22 06:30:28;;;;;;;;;;;3.90;1.00;;;;;;5047242;28;19909;-85
2022/02/22 06:32:54;;;;;;;;;;;3.90;1.00;;;;;;5030552;28;19986;-85
2022/02/22 06:35:20;;;;;;;;;;;3.90;1.00;;;;;;5045519;28;19988;-86
2022/02/22 06:37:45;;;;;;;;;;;4.00;1.00;;;;;;5049772;28;19917;-89
2022/02/22 06:40:11;;;;;;;;;;;4.10;1.00;;;;;;5048302;28;19963;-87
2022/02/22 06:42:37;;;;;;;;;;;4.30;1.00;;;;;;5052184;28;19917;-87
2022/02/22 06:45:04;;;;;;;;;;;4.40;1.00;;;;;;5041843;28;19932;-87
2022/02/22 06:47:29;;;;;;;;;;;4.50;1.00;;;;;;5043946;28;19913;-88
2022/02/22 06:49:55;;;;;;;;;;;4.60;1.00;;;;;;5051109;28;19923;-87
2022/02/22 06:52:20;;;;;;;;;;;4.70;1.00;;;;;;5043790;28;19909;-87
2022/02/22 06:54:46;;;;;;;;;;;4.90;1.00;;;;;;5047291;28;19970;-88
2022/02/22 06:57:12;;;;;;;;;;;5.00;1.00;;;;;;5041005;28;19996;-87
2022/02/22 06:59:37;;;;;;;;;;;5.10;99.90;;;;;;5042022;28;19913;-88
2022/02/22 07:02:05;;;;;;;;;;;5.20;99.90;;;;;;5047222;28;20274;-86
2022/02/22 07:04:30;;;;;;;;;;;5.30;99.90;;;;;;5044943;28;19998;-87
2022/02/22 07:06:56;;;;;;;;;;;5.40;99.90;;;;;;5049731;28;19917;-87
2022/02/22 07:09:21;;;;;;;;;;;5.50;99.90;;;;;;5046771;28;19958;-87
2022/02/22 07:11:47;;;;;;;;;;;5.40;99.90;;;;;;5045302;28;19919;-87
2022/02/22 07:14:12;;;;;;;;;;;5.40;99.90;;;;;;5040791;28;19921;-88
2022/02/22 07:16:38;;;;;;;;;;;5.40;99.90;;;;;;5046724;28;20403;-87
2022/02/22 07:19:03;;;;;;;;;;;5.60;99.90;;;;;;5044296;28;19966;-86
2022/02/22 07:21:29;;;;;;;;;;;5.70;98.40;;;;;;5045593;28;19935;-89
2022/02/22 07:23:54;;;;;;;;;;;5.80;7.90;;;;;;5045416;28;19964;-87
2022/02/22 07:26:20;;;;;;;;;;;6.00;1.00;;;;;;5052596;28;19913;-88
2022/02/22 07:28:46;;;;;;;;;;;6.20;1.00;;;;;;5051140;28;20084;-89
2022/02/22 07:31:11;;;;;;;;;;;6.50;99.90;;;;;;5042418;28;19913;-88
2022/02/22 07:33:38;;;;;;;;;;;6.60;1.00;;;;;;5046674;28;19913;-88
2022/02/22 07:36:04;;;;;;;;;;;6.70;99.90;;;;;;5046720;28;20000;-87
2022/02/22 07:38:30;;;;;;;;;;;6.70;1.00;;;;;;5043686;28;19917;-88
2022/02/22 07:40:56;;;;;;;;;;;6.60;1.00;;;;;;5044233;28;19948;-87
2022/02/22 07:43:21;;;;;;;;;;;6.60;1.00;;;;;;5038601;28;19917;-87
2022/02/22 07:45:47;;;;;;;;;;;6.70;1.00;;;;;;5042191;28;19920;-88
2022/02/22 07:48:12;;;;;;;;;;;6.90;1.00;;;;;;5042516;28;20285;-87
2022/02/22 07:50:38;;;;;;;;;;;6.90;99.90;;;;;;5042057;28;19917;-87
2022/02/22 07:53:04;;;;;;;;;;;7.10;99.90;;;;;;5038485;28;20286;-88
2022/02/22 07:55:29;;;;;;;;;;;7.20;1.00;;;;;;5048186;28;19917;-88
2022/02/22 07:57:55;;;;;;;;;;;7.60;99.90;;;;;;5045438;28;20509;-89
2022/02/22 08:00:20;;;;;;;;;;;7.90;99.90;;;;;;5044990;28;19924;-88
2022/02/22 08:02:46;;;;;;;;;;;8.30;11.90;;;;;;5044213;28;19920;-89
2022/02/22 08:05:12;;;;;;;;;;;9.80;1.00;;;;;;5044014;28;20374;-88
2022/02/22 08:07:37;;;;;;;;;;;12.40;1.00;;;;;;5051161;28;20275;-87
2022/02/22 08:10:04;;;;;;;;;;;12.40;1.00;;;;;;5052089;28;20003;-88
2022/02/22 08:12:29;;;;;;;;;;;11.90;1.00;;;;;;5052045;28;20251;-88
2022/02/22 08:14:55;;;;;;;;;;;11.70;1.00;;;;;;5052409;28;20437;-88
2022/02/22 08:17:20;;;;;;;;;;;11.30;1.00;;;;;;5049020;28;20016;-88
2022/02/22 08:19:45;;;;;;;;;;;11.10;1.00;;;;;;5044750;28;20274;-89
2022/02/22 08:22:11;;;;;;;;;;;10.80;1.00;;;;;;5032400;28;20000;-88
2022/02/22 08:24:36;;;;;;;;;;;10.70;1.00;;;;;;5045855;28;19917;-88
2022/02/22 08:27:03;;;;;;;;;;;10.30;1.00;;;;;;5050537;28;19919;-89
2022/02/22 08:29:28;;;;;;;;;;;10.00;1.00;;;;;;5064489;28;20274;-88
2022/02/22 08:31:54;;;;;;;;;;;9.80;1.00;;;;;;5062287;28;19943;-86
2022/02/22 08:34:20;;;;;;;;;;;9.80;1.00;;;;;;5049772;28;19988;-87
2022/02/22 08:36:46;;;;;;;;;;;9.70;1.00;;;;;;5050573;28;19944;-88
2022/02/22 08:39:11;;;;;;;;;;;9.60;1.00;;;;;;5051665;28;20385;-88
2022/02/22 08:41:37;;;;;;;;;;;9.50;1.00;;;;;;5050421;28;19936;-88
2022/02/22 08:44:02;;;;;;;;;;;9.50;1.00;;;;;;5038319;28;19967;-89
2022/02/22 08:46:28;;;;;;;;;;;9.50;1.00;;;;;;5053216;28;19962;-87
2022/02/22 08:48:53;;;;;;;;;;;9.40;1.00;;;;;;5051328;28;20335;-88
2022/02/22 08:51:19;;;;;;;;;;;9.30;1.00;;;;;;5045026;28;19921;-87
2022/02/22 08:53:44;;;;;;;;;;;9.30;1.00;;;;;;5050960;28;20296;-87
2022/02/22 08:56:10;;;;;;;;;;;9.20;1.00;;;;;;5047349;28;20302;-87
2022/02/22 08:58:36;;;;;;;;;;;9.20;1.00;;;;;;5052912;28;19978;-86
2022/02/22 09:01:01;;;;;;;;;;;9.20;1.00;;;;;;5044849;28;19974;-85
2022/02/22 09:03:27;;;;;;;;;;;9.30;1.00;;;;;;5045722;28;20328;-86
2022/02/22 09:05:53;;;;;;;;;;;9.40;1.00;;;;;;5053302;28;19932;-86
2022/02/22 09:08:19;;;;;;;;;;;9.40;1.00;;;;;;5053633;28;19916;-86
2022/02/22 09:10:45;;;;;;;;;;;9.50;1.00;;;;;;5055509;28;19916;-87
2022/02/22 09:13:12;;;;;;;;;;;9.60;1.00;;;;;;5053946;28;19913;-86
2022/02/22 09:15:37;;;;;;;;;;;9.80;1.00;;;;;;5054387;28;19951;-87
2022/02/22 09:18:03;;;;;;;;;;;9.90;1.00;;;;;;5054181;28;19952;-86
2022/02/22 09:20:29;;;;;;;;;;;10.20;1.00;;;;;;5054982;28;19966;-86
2022/02/22 09:22:55;;;;;;;;;;;10.40;1.00;;;;;;5052609;28;19923;-87
2022/02/22 09:25:21;;;;;;;;;;;10.50;1.00;;;;;;5053155;28;19916;-87
2022/02/22 09:27:47;;;;;;;;;;;11.00;1.00;;;;;;5053539;28;19962;-87
2022/02/22 09:30:14;;;;;;;;;;;11.50;1.00;;;;;;5049554;28;19921;-87
2022/02/22 09:32:40;;;;;;;;;;;11.70;1.00;;;;;;5038927;28;19917;-87
2022/02/22 09:35:06;;;;;;;;;;;11.90;1.00;;;;;;5052817;28;19915;-87
2022/02/22 09:37:31;;;;;;;;;;;12.20;1.00;;;;;;5053241;28;20015;-86
2022/02/22 09:39:57;;;;;;;;;;;12.20;1.00;;;;;;5054571;28;19908;-86
2022/02/22 09:42:25;;;;;;;;;;;12.10;1.00;;;;;;5053383;28;20360;-86
2022/02/22 09:44:51;;;;;;;;;;;12.00;1.00;;;;;;5052022;28;19912;-86
2022/02/22 09:47:17;;;;;;;;;;;12.10;1.00;;;;;;5053208;28;19920;-86
2022/02/22 09:49:43;;;;;;;;;;;12.30;1.00;;;;;;5054990;28;19909;-86
2022/02/22 09:52:08;;;;;;;;;;;12.30;1.00;;;;;;5053795;28;19917;-86
2022/02/22 09:54:34;;;;;;;;;;;12.20;1.00;;;;;;5052947;28;19966;-85
2022/02/22 09:57:00;;;;;;;;;;;12.10;1.00;;;;;;5054293;28;20280;-88
2022/02/22 09:59:26;;;;;;;;;;;12.00;1.00;;;;;;5053274;28;19913;-86
2022/02/22 10:01:52;;;;;;;;;;;11.90;1.00;;;;;;5052113;28;19921;-86
2022/02/22 10:04:18;;;;;;;;;;;11.80;1.00;;;;;;5046437;28;19939;-86
2022/02/22 10:06:43;;;;;;;;;;;11.80;1.00;;;;;;5069976;28;20339;-86
2022/02/22 10:09:09;;;;;;;;;;;11.80;1.00;;;;;;5054677;28;19920;-87
2022/02/22 10:11:45;;;;;;;;;;;11.90;1.00;;;;;;5053132;28;19919;-89
2022/02/22 10:14:19;;;;;;;;;;;12.00;1.00;;;;;;5038678;28;19909;-85
2022/02/22 10:16:45;;;;;;;;;;;12.00;1.00;;;;;;5052554;28;19920;-86
2022/02/22 10:19:14;;;;;;;;;;;12.00;1.00;;;;;;5052268;28;19943;-86
2022/02/22 10:21:41;;;;;;;;;;;12.10;1.00;;;;;;5052490;28;19944;-86
2022/02/22 10:24:07;;;;;;;;;;;12.10;1.00;;;;;;5053172;28;20415;-86
2022/02/22 10:26:33;;;;;;;;;;;11.90;1.00;;;;;;5052937;28;19908;-86
2022/02/22 10:28:58;;;;;;;;;;;11.60;1.00;;;;;;5052054;28;19970;-87
2022/02/22 10:31:32;;;;;;;;;;;11.30;1.00;;;;;;5053982;28;19970;-86
2022/02/22 10:33:58;;;;;;;;;;;11.10;1.00;;;;;;5052913;28;19971;-87
2022/02/22 10:36:23;;;;;;;;;;;11.00;1.00;;;;;;5052798;28;19912;-87
2022/02/22 10:38:48;;;;;;;;;;;10.80;1.00;;;;;;5053764;28;19912;-87
2022/02/22 10:41:15;;;;;;;;;;;10.60;1.00;;;;;;5053815;28;19916;-87
2022/02/22 10:43:54;;;;;;;;;;;10.50;1.00;;;;;;5052453;28;20336;-87
2022/02/22 10:46:24;;;;;;;;;;;10.50;1.00;;;;;;5052060;28;19912;-86
2022/02/22 10:48:49;;;;;;;;;;;10.50;1.00;;;;;;5052097;28;19909;-86
2022/02/22 10:51:15;;;;;;;;;;;10.40;1.00;;;;;;5051962;28;19908;-87
2022/02/22 10:53:43;;;;;;;;;;;10.40;1.00;;;;;;5051539;28;19959;-87
2022/02/22 10:56:10;;;;;;;;;;;10.40;1.00;;;;;;5051941;28;19912;-85
2022/02/22 10:58:39;;;;;;;;;;;10.30;1.00;;;;;;5052078;28;20431;-86
2022/02/22 11:01:09;;;;;;;;;;;10.30;1.00;;;;;;5052150;28;19909;-86
2022/02/22 11:03:35;;;;;;;;;;;10.20;1.00;;;;;;5050936;28;19913;-87
2022/02/22 11:06:00;;;;;;;;;;;10.30;1.00;;;;;;5048627;28;19912;-86
2022/02/22 11:08:28;;;;;;;;;;;10.50;1.00;;;;;;5051046;28;19920;-86
2022/02/22 11:10:55;;;;;;;;;;;10.60;1.00;;;;;;5052417;28;19916;-87
2022/02/22 11:13:27;;;;;;;;;;;10.70;1.00;;;;;;5051454;28;19919;-86
2022/02/22 11:15:53;;;;;;;;;;;10.70;1.00;;;;;;5049523;28;19917;-86
2022/02/22 11:18:20;;;;;;;;;;;10.70;1.00;;;;;;5046107;28;19924;-87
2022/02/22 11:20:46;;;;;;;;;;;10.80;1.00;;;;;;5044754;28;19909;-86
2022/02/22 11:23:15;;;;;;;;;;;10.80;1.00;;;;;;5052075;28;19912;-86
2022/02/22 11:25:42;;;;;;;;;;;10.80;1.00;;;;;;5052908;28;19967;-86
2022/02/22 11:28:12;;;;;;;;;;;10.70;1.00;;;;;;5068154;28;19912;-86
2022/02/22 11:30:38;;;;;;;;;;;10.70;1.00;;;;;;5045765;28;19913;-86
2022/02/22 11:33:08;;;;;;;;;;;10.70;1.00;;;;;;5032384;28;20370;-86
2022/02/22 11:35:47;;;;;;;;;;;10.90;1.00;;;;;;5035850;28;19909;-87
2022/02/22 11:38:13;;;;;;;;;;;11.10;1.00;;;;;;5050662;28;19998;-87
2022/02/22 11:40:39;;;;;;;;;;;11.30;1.00;;;;;;5053710;28;20375;-87
2022/02/22 11:43:12;;;;;;;;;;;11.10;1.00;;;;;;5051781;28;19917;-86
2022/02/22 11:45:37;;;;;;;;;;;11.00;1.00;;;;;;5052173;28;19909;-86
2022/02/22 11:48:22;;;;;;;;;;;10.90;1.00;;;;;;5049794;28;19912;-86
2022/02/22 11:50:50;;;;;;;;;;;10.90;1.00;;;;;;5034843;28;19970;-87
2022/02/22 11:53:19;;;;;;;;;;;10.90;1.00;;;;;;5047171;28;19935;-85
2022/02/22 11:55:46;;;;;;;;;;;10.80;1.00;;;;;;5043411;28;20422;-87
2022/02/22 11:58:14;;;;;;;;;;;10.70;1.00;;;;;;5040197;28;19964;-86
2022/02/22 12:00:42;;;;;;;;;;;10.50;1.00;;;;;;5048973;28;19909;-86
2022/02/22 12:03:09;;;;;;;;;;;10.30;1.00;;;;;;5038986;28;19917;-87
2022/02/22 12:05:39;;;;;;;;;;;10.20;1.00;;;;;;5044202;28;19914;-87
2022/02/22 12:08:07;;;;;;;;;;;10.10;1.00;;;;;;5043510;28;19920;-87
2022/02/22 12:10:34;;;;;;;;;;;9.90;1.00;;;;;;5043013;28;19920;-87
2022/02/22 12:13:04;;;;;;;;;;;9.70;15.30;;;;;;5039737;28;19912;-87
2022/02/22 12:15:33;;;;;;;;;;;9.70;99.90;;;;;;5046842;28;19995;-88
2022/02/22 12:17:59;;;;;;;;;;;9.60;1.00;;;;;;5060943;28;19924;-87
2022/02/22 12:20:28;;;;;;;;;;;9.60;1.00;;;;;;5046960;28;19917;-88
2022/02/22 12:22:54;;;;;;;;;;;9.60;1.00;;;;;;5049895;28;20008;-88
2022/02/22 12:25:23;;;;;;;;;;;9.60;1.00;;;;;;5051321;28;19960;-87
2022/02/22 12:27:57;;;;;;;;;;;9.60;99.90;;;;;;5064853;28;20039;-87
2022/02/22 12:30:33;;;;;;;;;;;9.60;99.90;;;;;;5049408;28;19952;-88
2022/02/22 12:32:59;;;;;;;;;;;9.60;99.90;;;;;;5046747;28;19962;-88
2022/02/22 12:35:32;;;;;;;;;;;9.50;1.00;;;;;;5048548;28;19996;-88
2022/02/22 12:37:58;;;;;;;;;;;9.40;99.90;;;;;;5048883;28;20262;-87
2022/02/22 12:40:31;;;;;;;;;;;9.40;1.00;;;;;;5046520;28;19936;-88
2022/02/22 12:43:07;;;;;;;;;;;9.40;1.00;;;;;;5045058;28;20446;-86
2022/02/22 12:45:49;;;;;;;;;;;9.30;99.90;;;;;;5038310;28;20051;-87
2022/02/22 12:48:15;;;;;;;;;;;9.40;99.90;;;;;;5040682;28;20354;-87
2022/02/22 12:50:44;;;;;;;;;;;9.50;99.90;;;;;;5051436;28;19920;-87
2022/02/22 12:53:09;;;;;;;;;;;9.50;99.90;;;;;;5049881;28;19912;-87
2022/02/22 12:55:45;;;;;;;;;;;9.60;99.90;;;;;;5046757;28;19939;-88
2022/02/22 12:58:11;;;;;;;;;;;9.70;99.90;;;;;;5048633;28;20059;-88
2022/02/22 13:00:38;;;;;;;;;;;9.90;99.90;;;;;;5052700;28;19970;-88
2022/02/22 13:03:11;;;;;;;;;;;10.20;1.00;;;;;;5051022;28;19928;-88
2022/02/22 13:05:41;;;;;;;;;;;10.50;99.90;;;;;;5045357;28;19913;-88
2022/02/22 13:08:07;;;;;;;;;;;10.80;99.90;;;;;;5049053;28;20003;-87
2022/02/22 13:10:43;;;;;;;;;;;10.90;99.90;;;;;;5059810;28;19959;-88
2022/02/22 13:13:10;;;;;;;;;;;10.70;99.90;;;;;;5046650;28;19916;-88
2022/02/22 13:15:35;;;;;;;;;;;10.50;99.90;;;;;;5041233;28;19913;-87
2022/02/22 13:18:14;;;;;;;;;;;10.20;1.00;;;;;;5045262;28;20407;-87
2022/02/22 13:20:40;;;;;;;;;;;10.10;99.90;;;;;;5045852;28;19914;-87
2022/02/22 13:23:09;;;;;;;;;;;10.00;99.90;;;;;;5045553;28;19913;-87
2022/02/22 13:25:36;;;;;;;;;;;9.90;1.00;;;;;;5047705;28;19986;-87
2022/02/22 13:28:01;;;;;;;;;;;9.80;1.00;;;;;;5047253;28;19913;-87
2022/02/22 13:30:27;;;;;;;;;;;9.70;15.20;;;;;;5048515;28;19920;-88
2022/02/22 13:33:01;;;;;;;;;;;9.80;99.90;;;;;;5050575;28;19932;-87
2022/02/22 13:35:26;;;;;;;;;;;9.90;11.10;;;;;;5044329;28;19947;-87
2022/02/22 13:37:52;;;;;;;;;;;9.90;1.00;;;;;;5065898;28;19916;-87
2022/02/22 13:40:19;;;;;;;;;;;9.80;99.90;;;;;;5046416;28;19999;-88
2022/02/22 13:42:45;;;;;;;;;;;9.70;99.90;;;;;;5066947;28;20423;-87
2022/02/22 13:45:13;;;;;;;;;;;9.70;99.90;;;;;;5052572;28;19913;-88
2022/02/22 13:47:39;;;;;;;;;;;9.60;99.90;;;;;;5045008;28;20011;-86
2022/02/22 13:50:17;;;;;;;;;;;9.70;99.90;;;;;;5048567;28;19959;-87
2022/02/22 13:52:51;;;;;;;;;;;9.80;99.90;;;;;;5042321;28;19913;-87
2022/02/22 13:55:17;;;;;;;;;;;9.90;99.90;;;;;;5048614;28;20012;-88
2022/02/22 13:57:47;;;;;;;;;;;10.20;23.80;;;;;;5038678;28;20003;-88
2022/02/22 14:00:13;;;;;;;;;;;10.40;99.90;;;;;;5049647;28;19995;-87
2022/02/22 14:02:38;;;;;;;;;;;10.50;99.90;;;;;;5051142;28;20023;-88
2022/02/22 14:05:04;;;;;;;;;;;10.60;1.00;;;;;;5049912;28;19963;-88
2022/02/22 14:07:30;;;;;;;;;;;10.70;99.90;;;;;;5062080;28;19944;-88
2022/02/22 14:09:55;;;;;;;;;;;10.70;99.90;;;;;;5050161;28;19916;-87
2022/02/22 14:12:21;;;;;;;;;;;10.70;99.90;;;;;;5049404;28;19920;-87
2022/02/22 14:14:46;;;;;;;;;;;10.70;51.40;;;;;;5049681;28;19913;-87
2022/02/22 14:17:12;;;;;;;;;;;10.80;1.00;;;;;;5047200;28;19913;-87
2022/02/22 14:19:37;;;;;;;;;;;10.80;1.00;;;;;;5051198;28;19917;-87
2022/02/22 14:22:03;;;;;;;;;;;10.80;1.00;;;;;;5052535;28;20392;-87
2022/02/22 14:24:29;;;;;;;;;;;10.70;1.00;;;;;;5047961;28;19913;-87
2022/02/22 14:26:54;;;;;;;;;;;10.70;1.00;;;;;;5048947;28;19927;-87
2022/02/22 14:29:19;;;;;;;;;;;10.70;1.00;;;;;;5049698;28;19916;-88
2022/02/22 14:31:45;;;;;;;;;;;10.60;1.00;;;;;;5047432;28;19920;-87